Time;durP1;ratioP1;P1;durP2;ratioP2;P2;SDS_P1;SDS_P2;PMS_P1;PMS_P2;Temp;Humidity;BMP_temperature;BMP_pressure;BME280_temperature;BME280_humidity;BME280_pressure;Samples;Min_cycle;Max_cycle;Signal;HPM_P1;HPM_P2
2022/09/19 00:00:09;;;;;;;945.70;881.88;;;;;;;11.95;72.14;100234.03;686765;28;46435;-64
2022/09/19 00:00:31;;;;;;;958.55;894.25;;;;;;;11.95;72.36;100237.56;686593;28;46301;-64
2022/09/19 00:00:53;;;;;;;946.90;883.00;;;;;;;11.95;72.42;100237.56;685914;28;67467;-65
2022/09/19 00:01:16;;;;;;;948.38;884.38;;;;;;;11.95;72.43;100239.44;688641;28;22365;-65
2022/09/19 00:01:39;;;;;;;954.53;890.42;;;;;;;11.94;72.09;100241.28;687436;28;92262;-64
2022/09/19 00:02:02;;;;;;;953.08;889.05;;;;;;;11.92;72.27;100237.09;687647;28;36839;-65
2022/09/19 00:02:24;;;;;;;957.72;893.53;;;;;;;11.93;72.06;100241.47;684847;28;90826;-65
2022/09/19 00:02:46;;;;;;;953.67;889.50;;;;;;;11.94;72.18;100237.75;687640;28;21518;-65
2022/09/19 00:03:08;;;;;;;945.05;881.30;;;;;;;11.94;72.08;100237.75;689263;28;46168;-65
2022/09/19 00:03:29;;;;;;;947.17;883.28;;;;;;;11.91;72.47;100238.94;689005;28;46586;-65
2022/09/19 00:03:53;;;;;;;945.80;882.08;;;;;;;11.96;72.13;100241.09;690057;28;23444;-66
2022/09/19 00:04:16;;;;;;;943.28;879.58;;;;;;;11.96;71.98;100236.53;686911;28;113641;-65
2022/09/19 00:04:37;;;;;;;945.45;881.70;;;;;;;11.97;72.49;100243.59;687838;28;92328;-65
2022/09/19 00:04:59;;;;;;;937.50;874.00;;;;;;;11.98;72.41;100241.75;690180;28;24421;-65
2022/09/19 00:05:21;;;;;;;945.70;881.85;;;;;;;11.98;71.93;100237.16;688650;28;45259;-65
2022/09/19 00:05:42;;;;;;;947.60;883.70;;;;;;;11.98;72.29;100241.75;690171;28;22407;-66
2022/09/19 00:06:04;;;;;;;947.50;883.67;;;;;;;11.97;71.87;100237.34;689353;28;47432;-64
2022/09/19 00:06:27;;;;;;;959.25;895.08;;;;;;;11.98;72.22;100234.44;689333;28;45296;-66
2022/09/19 00:06:51;;;;;;;951.03;887.13;;;;;;;11.98;72.23;100237.16;687872;28;67492;-65
2022/09/19 00:07:12;;;;;;;936.13;872.75;;;;;;;11.98;71.89;100244.44;687503;28;92270;-66
2022/09/19 00:07:33;;;;;;;939.28;875.65;;;;;;;11.98;72.12;100242.56;690079;28;21541;-65
2022/09/19 00:07:56;;;;;;;945.33;881.50;;;;;;;11.99;71.96;100244.25;688019;28;959;-65
2022/09/19 00:08:17;;;;;;;952.65;888.53;;;;;;;11.99;72.21;100237.97;686343;28;46247;-65
2022/09/19 00:08:40;;;;;;;960.50;896.10;;;;;;;11.96;72.30;100235.66;687288;28;1650;-65
2022/09/19 00:09:03;;;;;;;943.47;879.72;;;;;;;12.00;71.89;100242.38;685742;28;69441;-64
2022/09/19 00:09:26;;;;;;;949.60;885.58;;;;;;;12.00;72.13;100242.38;685578;28;68287;-65
2022/09/19 00:09:47;;;;;;;955.70;891.53;;;;;;;12.01;72.43;100241.34;686652;28;69293;-65
2022/09/19 00:10:10;;;;;;;929.03;865.72;;;;;;;12.01;72.04;100246.75;688938;28;22527;-65
2022/09/19 00:10:36;;;;;;;936.05;872.50;;;;;;;12.01;72.21;100236.75;688676;28;67113;-65
2022/09/19 00:11:00;;;;;;;957.63;893.40;;;;;;;12.03;72.23;100247.38;686247;28;138132;-65
2022/09/19 00:11:22;;;;;;;958.25;894.05;;;;;;;12.02;71.92;100245.69;687732;28;90316;-64
2022/09/19 00:11:46;;;;;;;958.10;893.75;;;;;;;11.99;71.90;100236.13;689262;28;44513;-65
2022/09/19 00:12:08;;;;;;;942.13;878.47;;;;;;;12.02;72.02;100241.16;685664;28;133977;-65
2022/09/19 00:12:29;;;;;;;944.08;880.28;;;;;;;12.02;71.79;100243.00;690089;28;22402;-64
2022/09/19 00:12:51;;;;;;;942.42;878.72;;;;;;;12.02;71.80;100249.25;690118;28;22459;-65
2022/09/19 00:13:12;;;;;;;955.58;891.42;;;;;;;12.02;72.20;100245.69;689345;28;46650;-65
2022/09/19 00:13:34;;;;;;;957.25;893.05;;;;;;;12.02;72.25;100251.13;690129;28;22373;-65
2022/09/19 00:14:00;;;;;;;963.42;898.97;;;;;;;12.01;72.21;100244.88;689634;28;37799;-65
2022/09/19 00:14:24;;;;;;;960.92;896.58;;;;;;;12.02;72.09;100249.25;688424;28;69136;-64
2022/09/19 00:14:47;;;;;;;951.60;887.63;;;;;;;12.02;72.03;100251.13;687844;28;92264;-65
2022/09/19 00:15:09;;;;;;;953.95;890.05;;;;;;;12.01;71.62;100244.06;687790;28;92309;-65
2022/09/19 00:15:33;;;;;;;939.55;876.13;;;;;;;12.00;72.00;100247.78;686806;28;22453;-65
2022/09/19 00:15:54;;;;;;;947.22;883.38;;;;;;;12.00;71.95;100247.78;685491;28;69451;-64
2022/09/19 00:16:18;;;;;;;950.58;886.65;;;;;;;12.00;71.77;100245.06;687125;28;23479;-65
2022/09/19 00:16:41;;;;;;;950.20;886.22;;;;;;;11.99;72.10;100246.09;684069;28;115079;-65
2022/09/19 00:17:06;;;;;;;958.83;894.35;;;;;;;12.00;72.06;100245.06;684392;28;69448;-65
2022/09/19 00:17:27;;;;;;;945.95;882.03;;;;;;;12.00;71.96;100243.19;686594;28;90326;-64
2022/09/19 00:17:50;;;;;;;946.53;882.70;;;;;;;12.01;72.02;100249.47;690197;28;21461;-65
2022/09/19 00:18:11;;;;;;;951.08;887.10;;;;;;;12.02;72.46;100251.97;688510;28;69292;-65
2022/09/19 00:18:32;;;;;;;943.28;879.53;;;;;;;12.00;72.30;100247.78;689998;28;23418;-65
2022/09/19 00:18:56;;;;;;;947.58;883.60;;;;;;;12.02;71.95;100251.13;689339;28;46303;-65
2022/09/19 00:19:18;;;;;;;959.53;895.22;;;;;;;12.02;72.13;100249.25;687698;28;90709;-65
2022/09/19 00:19:40;;;;;;;940.08;876.45;;;;;;;12.02;72.15;100246.56;688435;28;45233;-65
2022/09/19 00:20:01;;;;;;;953.75;889.63;;;;;;;12.03;71.98;100250.09;689077;28;22423;-65
2022/09/19 00:20:23;;;;;;;953.58;889.40;;;;;;;12.03;71.79;100247.38;689263;28;43961;-65
2022/09/19 00:20:45;;;;;;;943.00;879.10;;;;;;;12.02;71.89;100251.97;689258;28;44393;-65
2022/09/19 00:21:06;;;;;;;942.03;878.33;;;;;;;12.01;72.03;100244.88;689107;28;45277;-65
2022/09/19 00:21:30;;;;;;;947.83;883.88;;;;;;;12.02;71.88;100243.84;689895;28;23492;-65
2022/09/19 00:21:55;;;;;;;958.95;894.60;;;;;;;12.02;71.86;100249.25;686863;28;90689;-65
2022/09/19 00:22:16;;;;;;;955.95;891.63;;;;;;;12.02;72.25;100246.56;685542;28;115413;-65
2022/09/19 00:24:45;;;;;;;956.03;891.83;;;;;;;12.01;71.72;100244.06;690229;28;22407;-66
2022/09/19 00:24:49;;;;;;;938.97;875.33;;;;;;;12.02;71.62;100249.25;683620;28;135986;-65
2022/09/19 00:25:10;;;;;;;942.17;878.40;;;;;;;12.02;71.54;100257.38;684750;28;136028;-65
2022/09/19 00:25:31;;;;;;;943.25;879.50;;;;;;;12.02;71.61;100251.97;690075;28;23487;-64
2022/09/19 00:26:00;;;;;;;947.25;883.38;;;;;;;12.00;71.66;100248.59;690144;28;23406;-65
2022/09/19 00:26:21;;;;;;;943.13;879.42;;;;;;;12.02;71.61;100251.13;685119;28;160745;-65
2022/09/19 00:26:45;;;;;;;948.30;884.35;;;;;;;12.02;71.82;100243.00;685597;28;44362;-65
2022/09/19 00:27:07;;;;;;;947.45;883.15;;;;;;;12.01;71.66;100252.16;680884;28;69370;-65
2022/09/19 00:27:29;;;;;;;953.80;889.58;;;;;;;12.02;71.82;100251.13;683079;28;44298;-65
2022/09/19 00:27:50;;;;;;;947.42;883.55;;;;;;;12.01;71.71;100250.28;683084;28;46400;-65
2022/09/19 00:28:11;;;;;;;945.03;881.17;;;;;;;12.01;71.61;100250.28;683099;28;46407;-65
2022/09/19 00:28:33;;;;;;;950.22;886.17;;;;;;;12.00;71.63;100253.19;685227;28;22401;-65
2022/09/19 00:28:54;;;;;;;941.42;877.83;;;;;;;11.99;71.42;100254.22;684169;28;21537;-65
2022/09/19 00:29:18;;;;;;;949.70;885.75;;;;;;;11.98;71.41;100260.69;683665;28;44341;-65
2022/09/19 00:29:41;;;;;;;951.95;887.83;;;;;;;11.94;71.32;100251.28;680302;29;69319;-65
2022/09/19 00:30:02;;;;;;;950.88;886.90;;;;;;;11.97;71.56;100256.28;681250;28;68823;-65
2022/09/19 00:30:23;;;;;;;951.58;887.47;;;;;;;11.95;71.77;100261.91;683530;28;45305;-65
2022/09/19 00:30:46;;;;;;;950.65;886.63;;;;;;;11.95;71.65;100256.50;684547;28;22192;-65
2022/09/19 00:31:15;;;;;;;946.15;882.40;;;;;;;11.96;71.78;100257.31;681759;28;45232;-64
2022/09/19 00:31:36;;;;;;;947.67;883.88;;;;;;;11.95;71.69;100259.19;682501;28;135854;-65
2022/09/19 00:31:58;;;;;;;946.15;882.47;;;;;;;11.95;71.65;100253.78;683368;28;23471;-65
2022/09/19 00:32:21;;;;;;;949.28;885.45;;;;;;;11.95;71.63;100242.97;683249;28;46334;-65
2022/09/19 00:32:42;;;;;;;959.97;895.65;;;;;;;11.96;71.95;100255.47;682817;28;69399;-65
2022/09/19 00:33:04;;;;;;;949.97;886.08;;;;;;;11.97;71.91;100249.00;686235;28;22372;-65
2022/09/19 00:33:30;;;;;;;946.92;883.05;;;;;;;11.97;71.88;100251.72;688658;28;43940;-65
2022/09/19 00:33:52;;;;;;;969.47;904.83;;;;;;;11.93;71.51;100242.34;686020;28;136522;-65
2022/09/19 00:34:17;;;;;;;950.83;886.90;;;;;;;11.96;71.47;100250.06;690411;28;44371;-65
2022/09/19 00:34:40;;;;;;;944.88;881.00;;;;;;;11.97;71.61;100253.59;685916;28;115100;-65
2022/09/19 00:35:01;;;;;;;948.88;884.97;;;;;;;11.97;71.49;100250.88;688433;28;67377;-65
2022/09/19 00:35:22;;;;;;;950.38;886.40;;;;;;;11.97;71.89;100259.81;687016;28;23483;-65
2022/09/19 00:35:44;;;;;;;946.72;882.85;;;;;;;11.97;71.48;100249.00;686076;28;46387;-65
2022/09/19 00:36:05;;;;;;;941.22;877.60;;;;;;;11.98;71.96;100253.38;687241;28;21531;-65
2022/09/19 00:36:27;;;;;;;949.35;885.42;;;;;;;11.99;71.71;100249.66;684663;28;21499;-65
2022/09/19 00:36:50;;;;;;;943.50;879.70;;;;;;;12.00;71.56;100258.59;684134;28;68265;-65
2022/09/19 00:37:11;;;;;;;958.22;893.67;;;;;;;12.01;71.55;100257.59;684610;28;46371;-65
2022/09/19 00:37:32;;;;;;;952.50;888.40;;;;;;;12.00;71.53;100258.59;687918;28;934;-65
2022/09/19 00:37:53;;;;;;;960.30;895.90;;;;;;;12.00;71.89;100254.03;685929;28;23562;-65
2022/09/19 00:38:16;;;;;;;950.90;886.78;;;;;;;11.99;71.57;100252.38;683913;28;21529;-65
2022/09/19 00:38:37;;;;;;;945.40;881.42;;;;;;;12.01;71.66;100254.88;684516;28;45259;-64
2022/09/19 00:38:59;;;;;;;937.95;874.40;;;;;;;12.01;71.62;100255.69;687043;28;22406;-65
2022/09/19 00:39:20;;;;;;;954.95;890.83;;;;;;;12.02;71.77;100256.53;682899;28;46385;-64
2022/09/19 00:39:42;;;;;;;961.03;896.80;;;;;;;12.03;71.62;100252.78;684586;28;21771;-65
2022/09/19 00:40:04;;;;;;;949.17;885.38;;;;;;;12.03;71.84;100252.78;683613;28;46435;-64
2022/09/19 00:40:25;;;;;;;945.92;882.13;;;;;;;12.02;71.83;100254.69;684336;28;21249;-64
2022/09/19 00:40:46;;;;;;;945.92;882.10;;;;;;;12.02;71.32;100259.22;683792;28;44400;-64
2022/09/19 00:41:10;;;;;;;948.65;884.80;;;;;;;12.02;71.86;100254.69;685776;28;884;-65
2022/09/19 00:41:33;;;;;;;950.38;886.45;;;;;;;12.02;71.45;100260.09;684966;28;92378;-64
2022/09/19 00:41:54;;;;;;;948.88;884.92;;;;;;;12.02;71.54;100261.94;681623;28;69083;-65
2022/09/19 00:42:18;;;;;;;955.47;891.33;;;;;;;12.00;71.38;100266.72;684465;28;22386;-65
2022/09/19 00:42:39;;;;;;;957.95;893.75;;;;;;;12.02;71.43;100257.38;684106;28;90158;-65
2022/09/19 00:43:00;;;;;;;951.38;887.45;;;;;;;12.00;71.30;100256.72;686977;28;22345;-64
2022/09/19 00:43:25;;;;;;;956.38;892.22;;;;;;;12.02;71.76;100268.22;684004;28;22197;-65
2022/09/19 00:43:49;;;;;;;955.83;891.72;;;;;;;12.01;71.69;100265.69;682146;28;115341;-64
2022/09/19 00:44:47;;;;;;;951.38;887.35;;;;;;;12.01;71.33;100265.69;684827;28;92064;-64
2022/09/19 00:45:14;;;;;;;950.05;886.08;;;;;;;11.97;71.37;100259.81;683672;28;136002;-64
2022/09/19 00:45:36;;;;;;;962.13;897.75;;;;;;;12.00;71.39;100264.03;685227;28;159274;-65
2022/09/19 00:45:57;;;;;;;959.20;895.00;;;;;;;12.00;71.37;100267.56;689204;28;47149;-65
2022/09/19 00:46:19;;;;;;;949.13;885.13;;;;;;;12.00;71.65;100267.56;688705;28;21545;-65
2022/09/19 00:46:42;;;;;;;949.78;885.80;;;;;;;12.00;71.74;100269.44;688297;28;46510;-64
2022/09/19 00:47:07;;;;;;;965.35;900.67;;;;;;;12.00;71.67;100266.72;686733;28;69451;-65
2022/09/19 00:47:34;;;;;;;954.53;890.38;;;;;;;11.93;71.60;100261.28;683063;28;138010;-65
2022/09/19 00:47:56;;;;;;;944.63;880.95;;;;;;;11.99;71.66;100262.34;684337;28;107066;-65
2022/09/19 00:48:21;;;;;;;946.05;882.35;;;;;;;11.99;71.51;100265.91;683585;28;46286;-65
2022/09/19 00:48:45;;;;;;;943.00;879.40;;;;;;;11.99;71.81;100268.59;680544;28;116033;-65
2022/09/19 00:49:10;;;;;;;956.47;892.45;;;;;;;12.00;71.80;100269.44;682103;28;92266;-65
2022/09/19 00:49:33;;;;;;;953.60;889.42;;;;;;;12.01;71.43;100268.41;683669;28;92881;-65
2022/09/19 00:49:57;;;;;;;958.78;894.55;;;;;;;12.00;71.72;100270.25;684592;28;69364;-64
2022/09/19 00:50:21;;;;;;;942.95;879.25;;;;;;;12.01;71.72;100266.53;684276;28;92957;-64
2022/09/19 00:50:44;;;;;;;943.72;879.95;;;;;;;12.01;71.73;100271.94;686888;28;92332;-65
2022/09/19 00:51:05;;;;;;;957.40;893.13;;;;;;;11.99;71.58;100271.31;687954;28;69227;-65
2022/09/19 00:51:31;;;;;;;970.35;905.65;;;;;;;12.01;71.79;100271.94;686545;28;22232;-65
2022/09/19 00:51:56;;;;;;;948.58;884.60;;;;;;;12.01;71.44;100271.13;682297;28;137854;-65
2022/09/19 00:52:23;;;;;;;962.30;897.88;;;;;;;12.00;71.66;100264.84;684591;28;93387;-65
2022/09/19 00:52:47;;;;;;;941.03;877.40;;;;;;;11.99;71.74;100265.91;683131;28;137837;-65
2022/09/19 00:53:11;;;;;;;944.78;881.00;;;;;;;12.00;71.52;100274.84;685049;28;68432;-65
2022/09/19 00:53:32;;;;;;;948.28;884.38;;;;;;;11.99;71.35;100274.03;687532;28;90723;-65
2022/09/19 00:53:53;;;;;;;961.53;897.13;;;;;;;11.99;71.31;100263.19;689236;28;46338;-64
2022/09/19 00:54:18;;;;;;;952.53;888.25;;;;;;;11.99;71.69;100273.16;686437;28;20377;-65
2022/09/19 00:54:41;;;;;;;945.22;881.40;;;;;;;11.99;71.69;100270.47;684816;28;92258;-64
2022/09/19 00:55:03;;;;;;;950.90;886.92;;;;;;;11.98;71.30;100264.22;683971;28;90641;-65
2022/09/19 00:55:25;;;;;;;959.42;895.08;;;;;;;11.97;71.05;100270.66;686117;28;43495;-65
2022/09/19 00:55:49;;;;;;;958.80;894.50;;;;;;;11.97;71.52;100275.25;687051;28;22453;-65
2022/09/19 00:56:10;;;;;;;952.83;888.83;;;;;;;11.96;71.33;100274.41;685883;28;102658;-65
2022/09/19 00:56:33;;;;;;;943.05;879.38;;;;;;;11.93;71.33;100274.81;689779;28;23427;-64
2022/09/19 00:56:55;;;;;;;942.55;878.70;;;;;;;11.95;71.15;100275.44;686930;28;58787;-65
2022/09/19 00:57:16;;;;;;;953.25;888.78;;;;;;;11.95;71.09;100278.16;687990;28;46287;-65
2022/09/19 00:57:59;;;;;;;950.03;885.97;;;;;;;11.96;71.31;100273.56;689934;28;23259;-64
2022/09/19 00:58:26;;;;;;;941.55;877.78;;;;;;;11.95;71.61;100270.03;685857;28;137524;-63
2022/09/19 00:58:47;;;;;;;953.90;889.70;;;;;;;11.95;71.31;100266.50;686060;28;136303;-65
2022/09/19 00:59:09;;;;;;;951.28;887.28;;;;;;;11.95;71.38;100267.31;690002;28;21474;-65
2022/09/19 00:59:34;;;;;;;950.38;886.33;;;;;;;11.95;71.49;100271.91;689052;28;46360;-65
2022/09/19 00:59:55;;;;;;;944.63;880.75;;;;;;;11.96;71.75;100271.72;685934;28;137351;-65
2022/09/19 01:00:18;;;;;;;953.63;889.47;;;;;;;11.97;71.41;100277.94;689626;28;22400;-64
2022/09/19 01:00:39;;;;;;;949.72;885.72;;;;;;;11.97;71.39;100270.66;686587;28;44357;-64
2022/09/19 01:01:01;;;;;;;950.40;886.47;;;;;;;11.98;71.78;100271.50;686585;28;22372;-64
2022/09/19 01:01:23;;;;;;;946.53;882.67;;;;;;;11.99;71.67;100281.28;682960;28;46293;-65
2022/09/19 01:01:45;;;;;;;958.58;894.28;;;;;;;11.99;71.46;100273.16;679998;28;67494;-65
2022/09/19 01:02:08;;;;;;;945.42;881.65;;;;;;;11.98;71.54;100274.22;675700;29;67526;-64
2022/09/19 01:02:30;;;;;;;958.58;894.30;;;;;;;11.99;71.41;100276.72;676773;29;69423;-65
2022/09/19 01:02:52;;;;;;;947.10;883.15;;;;;;;11.99;71.27;100274.03;679326;29;44314;-65
2022/09/19 01:03:14;;;;;;;939.53;875.97;;;;;;;11.98;71.31;100272.34;681604;29;22407;-65
2022/09/19 01:03:37;;;;;;;945.78;881.95;;;;;;;11.98;71.51;100271.50;681217;28;67503;-64
2022/09/19 01:04:01;;;;;;;947.40;883.60;;;;;;;11.98;71.08;100272.34;683471;28;69411;-65
2022/09/19 01:04:24;;;;;;;951.78;887.75;;;;;;;11.98;71.23;100274.22;682883;28;92251;-64
2022/09/19 01:04:45;;;;;;;968.13;903.53;;;;;;;11.97;71.59;100269.81;685960;28;45272;-65
2022/09/19 01:05:08;;;;;;;960.20;896.03;;;;;;;11.97;71.18;100272.53;686004;28;44221;-64
2022/09/19 01:05:37;;;;;;;960.42;896.13;;;;;;;11.97;71.19;100281.47;683155;28;44108;-65
2022/09/19 01:06:08;;;;;;;973.72;908.90;;;;;;;11.96;71.38;100274.41;682598;28;137816;-64
2022/09/19 01:06:49;;;;;;;945.92;881.97;;;;;;;11.96;71.27;100271.72;682688;28;60332;-64
2022/09/19 01:07:13;;;;;;;960.30;895.80;;;;;;;11.93;71.32;100277.50;677711;28;180318;-65
2022/09/19 01:07:43;;;;;;;961.33;896.95;;;;;;;11.95;71.75;100270.03;684908;28;92153;-65
2022/09/19 01:08:24;;;;;;;958.95;894.75;;;;;;;11.95;71.36;100272.72;679090;28;158985;-64
2022/09/19 01:08:56;;;;;;;957.03;892.85;;;;;;;11.98;71.33;100276.91;682425;28;136019;-64
2022/09/19 01:09:31;;;;;;;949.80;885.97;;;;;;;11.96;71.14;100277.13;683263;28;137714;-64
2022/09/19 01:09:56;;;;;;;931.85;868.35;;;;;;;11.98;71.24;100276.91;684189;28;128456;-64
2022/09/19 01:10:29;;;;;;;959.40;894.80;;;;;;;11.98;71.54;100282.34;686433;28;116278;-64
2022/09/19 01:11:04;;;;;;;950.38;886.28;;;;;;;11.98;71.03;100279.63;685854;28;137967;-65
2022/09/19 01:11:37;;;;;;;945.78;881.95;;;;;;;11.95;71.49;100275.44;685812;28;137566;-64
2022/09/19 01:12:18;;;;;;;963.00;898.70;;;;;;;11.95;71.29;100278.16;685257;28;137745;-65
2022/09/19 01:12:51;;;;;;;957.38;893.28;;;;;;;11.96;71.59;100273.56;682694;28;137517;-65
2022/09/19 01:13:17;;;;;;;948.35;884.65;;;;;;;11.95;71.44;100272.72;683105;28;137801;-65
2022/09/19 01:13:48;;;;;;;964.50;900.05;;;;;;;11.95;71.20;100278.16;680454;28;138627;-64
2022/09/19 01:14:18;;;;;;;955.67;891.60;;;;;;;11.95;71.19;100280.84;677541;29;137829;-64
2022/09/19 01:14:54;;;;;;;945.90;882.13;;;;;;;11.95;71.30;100280.84;679909;28;136038;-64
2022/09/19 01:15:28;;;;;;;950.75;886.75;;;;;;;11.95;71.06;100278.16;680072;28;137577;-64
2022/09/19 01:15:54;;;;;;;957.22;893.05;;;;;;;11.95;71.26;100275.44;679371;28;160645;-65
2022/09/19 01:16:20;;;;;;;959.50;895.22;;;;;;;11.94;71.23;100276.47;682874;28;138686;-64
2022/09/19 01:16:50;;;;;;;954.70;890.58;;;;;;;11.94;71.31;100275.63;683000;28;138081;-64
2022/09/19 01:17:19;;;;;;;952.67;888.40;;;;;;;11.95;71.27;100275.44;682666;28;106723;-66
2022/09/19 01:17:46;;;;;;;952.90;888.85;;;;;;;11.94;71.20;100275.63;681501;28;136275;-64
2022/09/19 01:18:08;;;;;;;952.00;888.10;;;;;;;11.96;71.51;100281.69;679825;28;136306;-64
2022/09/19 01:18:34;;;;;;;950.40;886.45;;;;;;;11.97;71.45;100283.34;682678;28;46335;-64
2022/09/19 01:19:04;;;;;;;949.28;885.45;;;;;;;11.95;71.29;100280.84;678008;28;136523;-64
2022/09/19 01:19:53;;;;;;;951.15;887.15;;;;;;;11.97;71.41;100277.94;680755;28;137128;-65
2022/09/19 01:20:52;;;;;;;956.60;892.50;;;;;;;11.97;71.11;100284.19;686067;28;136032;-65
2022/09/19 01:22:03;;;;;;;943.88;880.20;;;;;;;11.97;71.59;100283.34;681202;28;160984;-64
2022/09/19 01:22:31;;;;;;;950.05;886.15;;;;;;;11.95;71.29;100280.03;682857;28;138135;-65
2022/09/19 01:23:05;;;;;;;950.03;886.03;;;;;;;11.95;71.32;100286.25;683164;28;137464;-64
2022/09/19 01:23:39;;;;;;;969.72;905.17;;;;;;;11.95;71.33;100280.03;682337;28;137592;-65
2022/09/19 01:24:43;;;;;;;950.47;886.60;;;;;;;11.94;71.45;100286.47;682829;28;137713;-64
2022/09/19 01:25:12;;;;;;;956.17;892.08;;;;;;;11.95;71.27;100282.72;672419;29;138402;-64
2022/09/19 01:25:46;;;;;;;947.35;883.58;;;;;;;11.91;71.16;100282.22;674869;28;137489;-64
2022/09/19 01:26:20;;;;;;;947.13;882.70;;;;;;;11.90;71.24;100284.13;684961;28;162056;-64
2022/09/19 01:26:59;;;;;;;954.00;889.85;;;;;;;11.89;71.80;100278.91;682948;28;135977;-64
2022/09/19 01:27:40;;;;;;;962.17;897.67;;;;;;;11.92;71.64;100281.25;678484;28;157537;-65
2022/09/19 01:28:11;;;;;;;943.67;879.97;;;;;;;11.94;71.62;100287.28;681691;28;137435;-64
2022/09/19 01:28:40;;;;;;;961.13;896.83;;;;;;;11.96;71.64;100284.38;684746;28;137547;-65
2022/09/19 01:29:07;;;;;;;947.75;883.97;;;;;;;11.96;71.64;100284.38;686176;28;45120;-65
2022/09/19 01:29:30;;;;;;;937.72;874.38;;;;;;;11.96;71.61;100284.38;684988;28;160751;-65
2022/09/19 01:29:54;;;;;;;958.00;893.85;;;;;;;11.96;71.52;100287.94;683369;28;92120;-64
2022/09/19 01:30:17;;;;;;;962.70;898.30;;;;;;;11.95;71.57;100286.25;683790;28;90572;-64
2022/09/19 01:30:42;;;;;;;954.33;890.13;;;;;;;11.96;71.60;100287.09;685425;28;69994;-64
2022/09/19 01:31:17;;;;;;;953.47;889.42;;;;;;;11.96;71.56;100289.78;678044;29;115834;-65
2022/09/19 01:31:42;;;;;;;945.45;881.58;;;;;;;11.96;71.24;100290.66;678414;28;137994;-64
2022/09/19 01:32:08;;;;;;;949.08;885.10;;;;;;;11.96;70.94;100285.25;681902;28;92089;-65
2022/09/19 01:32:34;;;;;;;942.42;878.63;;;;;;;11.94;71.06;100284.56;682982;28;139065;-65
2022/09/19 01:32:59;;;;;;;966.17;901.67;;;;;;;11.95;71.13;100282.72;680713;28;159184;-65
2022/09/19 01:33:21;;;;;;;954.90;890.70;;;;;;;11.96;71.51;100289.78;680197;28;138000;-65
2022/09/19 01:33:53;;;;;;;957.63;893.45;;;;;;;11.97;71.52;100292.31;680855;28;114984;-65
2022/09/19 01:34:18;;;;;;;959.88;895.58;;;;;;;11.98;71.04;100285.03;680347;28;136167;-65
2022/09/19 01:34:44;;;;;;;951.38;887.30;;;;;;;11.96;71.25;100285.25;683592;28;115750;-65
2022/09/19 01:35:10;;;;;;;956.40;892.38;;;;;;;11.95;71.01;100283.56;683396;28;137802;-65
2022/09/19 01:35:32;;;;;;;954.40;890.35;;;;;;;11.96;71.25;100285.25;683883;28;113575;-65
2022/09/19 01:35:54;;;;;;;963.95;899.58;;;;;;;11.96;70.93;100289.78;682718;28;68399;-65
2022/09/19 01:36:16;;;;;;;949.23;885.43;;;;;;;11.96;70.93;100287.09;684136;28;22499;-65
2022/09/19 01:36:43;;;;;;;944.70;881.03;;;;;;;11.95;70.80;100288.13;682485;28;69409;-65
2022/09/19 01:37:07;;;;;;;965.10;900.50;;;;;;;11.95;71.40;100282.72;673491;29;138794;-65
2022/09/19 01:37:34;;;;;;;958.40;894.25;;;;;;;11.95;71.05;100280.84;675008;29;136529;-65
2022/09/19 01:38:00;;;;;;;953.03;889.08;;;;;;;11.95;70.94;100291.69;678339;29;115011;-64
2022/09/19 01:38:25;;;;;;;949.75;885.72;;;;;;;11.94;71.20;100287.28;677819;28;138077;-65
2022/09/19 01:38:51;;;;;;;947.10;883.33;;;;;;;11.95;70.99;100291.69;680407;28;136902;-65
2022/09/19 01:39:19;;;;;;;957.70;893.42;;;;;;;11.96;71.31;100289.78;679490;28;137979;-65
2022/09/19 01:39:46;;;;;;;958.58;894.28;;;;;;;11.93;71.16;100291.03;677379;29;136265;-65
2022/09/19 01:40:09;;;;;;;949.20;885.38;;;;;;;11.95;71.15;100285.44;678311;28;67458;-65
2022/09/19 01:40:39;;;;;;;961.58;897.20;;;;;;;11.93;70.87;100288.34;678451;28;138352;-65
2022/09/19 01:41:04;;;;;;;953.72;889.72;;;;;;;11.92;70.69;100288.50;680957;28;114978;-65
2022/09/19 01:41:25;;;;;;;951.53;887.45;;;;;;;11.91;70.83;100287.66;683434;28;46275;-65
2022/09/19 01:41:48;;;;;;;948.90;885.03;;;;;;;11.90;70.86;100289.53;681637;29;22398;-65
2022/09/19 01:42:12;;;;;;;945.05;881.25;;;;;;;11.91;71.22;100284.94;677710;29;111206;-65
2022/09/19 01:42:35;;;;;;;949.03;885.13;;;;;;;11.93;71.33;100284.78;675811;29;69503;-65
2022/09/19 01:42:57;;;;;;;949.00;885.13;;;;;;;11.93;71.16;100296.47;676400;29;69429;-65
2022/09/19 01:43:21;;;;;;;942.65;878.90;;;;;;;11.93;71.16;100299.16;681070;28;67575;-65
2022/09/19 01:43:42;;;;;;;946.13;882.22;;;;;;;11.92;70.94;100288.50;681287;28;69245;-65
2022/09/19 01:44:06;;;;;;;944.92;881.20;;;;;;;11.92;70.98;100293.91;682904;28;22541;-65
2022/09/19 01:44:30;;;;;;;954.00;889.90;;;;;;;11.90;71.33;100289.53;680342;28;136425;-64
2022/09/19 01:44:53;;;;;;;962.75;898.35;;;;;;;11.86;71.29;100285.53;679780;28;68223;-65
2022/09/19 01:45:14;;;;;;;955.25;891.25;;;;;;;11.90;71.00;100294.94;680401;29;46400;-65
2022/09/19 01:45:36;;;;;;;948.05;884.33;;;;;;;11.89;71.02;100293.25;681641;29;23472;-65
2022/09/19 01:46:07;;;;;;;942.05;878.45;;;;;;;11.89;71.40;100290.56;681846;28;69319;-65
2022/09/19 01:46:40;;;;;;;949.60;885.55;;;;;;;11.89;70.88;100295.13;679541;28;135991;-65
2022/09/19 01:47:13;;;;;;;949.78;885.55;;;;;;;11.87;70.91;100289.09;676919;28;137648;-65
2022/09/19 01:47:39;;;;;;;947.28;883.35;;;;;;;11.87;71.02;100291.81;677585;29;137747;-66
2022/09/19 01:48:12;;;;;;;945.92;882.05;;;;;;;11.87;71.19;100292.63;679888;28;138177;-64
2022/09/19 01:48:42;;;;;;;960.83;896.40;;;;;;;11.87;71.10;100291.81;679986;28;137399;-65
2022/09/19 01:49:09;;;;;;;943.40;879.70;;;;;;;11.86;71.30;100301.75;679899;28;138531;-64
2022/09/19 01:49:40;;;;;;;953.85;889.65;;;;;;;11.85;71.37;100300.13;679007;28;136362;-65
2022/09/19 01:50:05;;;;;;;954.67;890.53;;;;;;;11.84;71.18;100297.59;677520;29;137690;-65
2022/09/19 01:50:45;;;;;;;950.40;886.38;;;;;;;11.84;71.32;100293.00;674569;29;138125;-64
2022/09/19 01:51:17;;;;;;;941.25;877.63;;;;;;;11.85;71.44;100302.81;677440;29;136033;-65
2022/09/19 01:51:42;;;;;;;955.83;891.55;;;;;;;11.86;71.18;100296.34;677745;29;137824;-65
2022/09/19 01:52:15;;;;;;;937.22;873.63;;;;;;;11.87;71.21;100302.63;676941;28;138136;-65
2022/09/19 01:52:56;;;;;;;954.38;890.17;;;;;;;11.86;71.54;100296.34;677860;29;136042;-66
2022/09/19 01:53:38;;;;;;;956.17;892.17;;;;;;;11.87;71.52;100303.44;679163;28;136100;-65
2022/09/19 01:54:31;;;;;;;960.95;896.67;;;;;;;11.86;71.43;100299.06;681980;28;160289;-65
2022/09/19 01:55:10;;;;;;;955.40;891.17;;;;;;;11.86;71.12;100299.06;681997;28;86390;-65
2022/09/19 01:55:39;;;;;;;936.17;872.38;;;;;;;11.87;71.50;100303.44;682039;28;85332;-65
2022/09/19 01:56:06;;;;;;;958.17;893.80;;;;;;;11.88;71.25;100298.88;677315;29;137906;-65
2022/09/19 01:56:32;;;;;;;948.72;884.70;;;;;;;11.88;71.59;100297.00;677251;29;137502;-64
2022/09/19 01:57:01;;;;;;;945.00;881.00;;;;;;;11.88;71.18;100301.56;676903;28;137792;-65